Airfield :







YOU CAN JOIN US ON...

 
LOGIN :

Register | Disclaimer

   EN    FR    IT 

 









Legend :    VFR   Marginal VFR   IFR   Intensive IFR   Very Intensive IFR
Visi :
Ceiling :
>= 8 km
>= 3000ft
5 to 8 km
1000 to 3000 ft
1500m to 5 km
500 to 1000 ft
800 to 1500m
200 to 500 ft
< 800m
< 200 ft
Symbols :   Thunderstorms  Fog  Heavy snow  Heavy precipitations  Wind > 20 kt






- Airport Elevation : 461 ft
- IATA code : YYT


CYYT - St John's Int

CURRENT METAR :
  • 291800Z 30024G30KT 15SM OVC008 06/06 A2943 RMK SF8 SLP971

EXPIRED METARs :
  • 291738Z 29017G25KT 10SM OVC005 07/07 A2943 RMK SF8 SLP972
  • 291700Z 28017KT 2SM R29/4000VP6000FT/U R16/3000VP6000FT/U BR OVC003 07/07 A2940 RMK ST8 SLP961
  • 291642Z 28012G18KT 1/8SM R29/2000V2400FT/N R16/1800V2200FT/N FG VV001 06/06 A2940 RMK FG8 SLP961
  • 291600Z 29016KT 1/2SM R29/3500V4000FT/N R16/3000V3500FT/N FG VV002 06/06 A2938 RMK FG8 SLP955

TAF TAF CYYT
Valid from the 29 at 18:00 until the 30 at 18:00 UTC


291738Z 2918/3018 28015G25KT 1SM -RA -DZ BR OVC002
TEMPO 2918/2919 6SM BR OVC006
BECMG 2918/2919 31015G25KT
FM291900 30018G28KT 6SM BR OVC006
TEMPO 2919/2921 P6SM NSW SCT006 OVC015
FM292100 30025G35KT P6SM BKN015
FM300300 29025G35KT P6SM SCT015
BECMG 3010/3012 29018G28KT
FM301500 29012G22KT P6SM FEW025 RMK NXT FCST BY 300000Z
CZQX FIR / North America



MET'MAP, your aeronautical weather chart ! - Copyright ORBIFLY December 2007 - Disclaimer

ORBIFLY MET'MAP TEAM :

Programming & Development : Alexandra Zaïnal
Concept & original design : Baudouin d'Aumeries
Assistance for programming : Marc-Olivier Méhu
Technical & hardware support : Manuel Goepfert

Contact : metmap@orbifly.com




SOURCES & CREDITS :

   NOAA